Scott AFB,Midamerica Airport Belleville US
ICAO: KBLV
IATA: BLV
Category: Large
Scheduled Services: No

Elevation: 459 ft
TransAlt. 18000 ft.

Airport Communications:
ST LOUIS APP/DEP:125.2
126 ARW COMD POST:138.55
ATIS:128.7
CLNC DEL:121.75
GND:119.2
PMSV METRO:23.98
375 AW COMD POST:130.65
PTD:139.85
TWR:118.65
UNICOM:122.95

KBLV Zoom In..

If you have problems with the map follow the link
https://www.worldairports.se/pages/airport.php?
ICAO=KBLV

Runways:

(A) RW 14L length 10000 ft width 150 ft
ILS 111.15 / hdg 135

(B) RW 14R length 8010 ft width 150 ft
ILS 109.90 / hdg 135

(C) RW 32L length 8010 ft width 150 ft
ILS 109.90 / hdg 315

(D) RW 32R length 10000 ft width 150 ft
ILS 111.15 / hdg 315

Location; KBLV
Day. 16 / Time. 03.01 Zulu
* Altimeter: 30.03
* Temperature: 1/° c. 33.8°f.
* Wind from: 000° Speed 00 kn.
Dewpoint: V2° c.
Visibility: 10 Statute Miles.
Clouds: Clear (automated report).

KBLV 160301Z 00000KT 10SM CLR M04/M06 A3003 RMK AO2A VIS 1 1/2V2 1/2 SLP178 $


Wind - Calm.

 
 
jpsmedia.com for Web Design worldairports.se 2018   terms of use